createdAt,value
2023-03-05T13:43:52.058Z,100277
2023-03-05T16:23:42.818Z,100091
2023-03-05T17:36:56.669Z,100047
2023-03-05T18:01:44.687Z,100039
2023-03-05T18:07:42.572Z,100032
2023-03-05T18:13:47.723Z,100030
2023-03-05T18:20:10.908Z,100031
2023-03-05T18:26:22.394Z,100018
2023-03-05T18:56:03.304Z,99991
2023-03-05T19:01:55.835Z,99982
2023-03-05T19:07:48.553Z,99993
2023-03-05T19:13:50.554Z,99986
2023-03-05T19:19:56.445Z,99987
2023-03-05T19:26:01.305Z,99982
2023-03-05T19:32:01.067Z,99980
2023-03-05T19:37:56.197Z,99975
2023-03-05T19:50:01.117Z,99972
2023-03-05T19:55:54.509Z,99964
2023-03-05T20:01:45.633Z,99962
2023-03-05T20:07:46.819Z,99966
2023-03-05T20:13:41.002Z,99962
2023-03-05T20:19:34.012Z,99959
2023-03-05T20:25:24.891Z,99961
2023-03-05T20:31:19.615Z,99964
2023-03-05T20:37:12.383Z,99957
2023-03-05T20:43:04.604Z,99951
2023-03-05T20:49:12.045Z,99941
2023-03-05T20:55:05.731Z,99930
2023-03-05T21:00:56.103Z,99920
2023-03-05T21:06:49.572Z,99906
2023-03-05T21:12:43.449Z,99907
2023-03-05T21:18:39.612Z,99894
2023-03-05T21:24:32.047Z,99890
2023-03-05T21:36:43.773Z,99873
2023-03-05T21:42:42.783Z,99871
2023-03-05T21:48:36.550Z,99859
2023-03-05T21:54:31.805Z,99844
2023-03-05T22:00:37.385Z,99845
2023-03-05T22:06:45.753Z,99834
2023-03-05T22:30:40.289Z,99800
2023-03-05T22:36:38.268Z,99793
2023-03-05T22:48:24.567Z,99783
2023-03-05T22:54:23.408Z,99786
2023-03-05T23:12:51.110Z,99770
2023-03-05T23:18:41.730Z,99767
2023-03-05T23:24:35.585Z,99756
2023-03-05T23:30:29.779Z,99755
2023-03-05T23:36:20.745Z,99754
2023-03-05T23:42:11.729Z,99752
2023-03-05T23:48:02.739Z,99746
2023-03-05T23:53:53.381Z,99745
2023-03-05T23:59:45.900Z,99739
